createdAt,value
2019-02-05T00:00:08.518Z,93.29
2019-02-05T00:01:08.484Z,92.66
2019-02-05T00:02:08.461Z,92.14
2019-02-05T00:03:08.440Z,92.55
2019-02-05T00:04:08.429Z,92.14
2019-02-05T00:05:08.682Z,92.03
2019-02-05T00:06:08.388Z,92.55
2019-02-05T00:07:08.428Z,92.14
2019-02-05T00:08:08.410Z,92.35
2019-02-05T00:09:08.364Z,92.45
2019-02-05T00:10:08.439Z,93.01
2019-02-05T00:11:08.355Z,92.24
2019-02-05T00:12:08.359Z,92.86
2019-02-05T00:13:08.337Z,92.41
2019-02-05T00:14:08.321Z,92.55
2019-02-05T00:15:08.269Z,92.72
2019-02-05T00:16:08.368Z,92.35
2019-02-05T00:17:08.368Z,92.93
2019-02-05T00:18:08.287Z,92.66
2019-02-05T00:19:08.260Z,92.14
2019-02-05T00:20:08.271Z,92.24
2019-02-05T00:21:08.260Z,92.93
2019-02-05T00:22:08.296Z,92.61
2019-02-05T00:23:08.209Z,92.76
2019-02-05T00:24:08.212Z,93.29
2019-02-05T00:25:08.194Z,93.14
2019-02-05T00:26:08.192Z,93.14
2019-02-05T00:27:08.240Z,93.35
2019-02-05T00:28:08.179Z,93.24
2019-02-05T00:29:08.170Z,93.24
2019-02-05T00:30:08.111Z,93.14
2019-02-05T00:31:08.155Z,93.35
2019-02-05T00:32:08.732Z,92.30
2019-02-05T00:33:08.222Z,92.45
2019-02-05T00:34:08.114Z,92.61
2019-02-05T00:35:08.089Z,92.20
2019-02-05T00:36:08.076Z,92.10
2019-02-05T00:37:08.069Z,92.10
2019-02-05T00:38:08.734Z,92.30
2019-02-05T00:39:08.057Z,92.72
2019-02-05T00:40:08.038Z,92.30
2019-02-05T00:41:08.157Z,92.20
2019-02-05T00:42:08.012Z,92.10
2019-02-05T00:43:07.981Z,92.30
2019-02-05T00:44:08.080Z,92.93
2019-02-05T00:45:07.959Z,92.30
2019-02-05T00:46:07.949Z,93.55
2019-02-05T00:47:07.936Z,92.51
2019-02-05T00:48:07.910Z,92.61
2019-02-05T00:49:07.926Z,92.61
2019-02-05T00:50:07.947Z,92.30
2019-02-05T00:51:07.902Z,92.10
2019-02-05T00:52:15.772Z,92.03
2019-02-05T00:53:07.882Z,92.41
2019-02-05T00:54:07.908Z,92.35
2019-02-05T00:55:07.945Z,91.62
2019-02-05T00:56:17.373Z,91.62
2019-02-05T00:57:08.806Z,92.45
2019-02-05T00:58:07.826Z,91.72
2019-02-05T00:59:07.839Z,91.62
2019-02-05T01:00:08.080Z,92.20
2019-02-05T01:01:07.918Z,92.20
2019-02-05T01:02:07.779Z,92.24
2019-02-05T01:03:07.824Z,92.20
2019-02-05T01:04:07.761Z,92.10
2019-02-05T01:05:07.746Z,91.20
2019-02-05T01:06:07.792Z,91.37
2019-02-05T01:07:08.768Z,91.72
2019-02-05T01:08:07.712Z,91.41
2019-02-05T01:09:07.746Z,91.58
2019-02-05T01:10:07.719Z,91.83
2019-02-05T01:11:07.779Z,91.41
2019-02-05T01:12:07.687Z,91.83
2019-02-05T01:13:07.707Z,91.52
2019-02-05T01:14:07.660Z,92.03
2019-02-05T01:15:07.621Z,91.93
2019-02-05T01:16:07.647Z,91.31
2019-02-05T01:17:07.677Z,91.37
2019-02-05T01:18:07.621Z,91.93
2019-02-05T01:19:07.611Z,91.58
2019-02-05T01:20:07.624Z,91.78
2019-02-05T01:21:07.730Z,91.99
2019-02-05T01:22:07.550Z,91.72
2019-02-05T01:23:07.600Z,91.83
2019-02-05T01:24:07.580Z,91.41
2019-02-05T01:25:07.528Z,91.37
2019-02-05T01:26:07.513Z,91.99
2019-02-05T01:27:07.552Z,92.72
2019-02-05T01:28:07.541Z,92.45
2019-02-05T01:29:07.484Z,92.66
2019-02-05T01:30:07.492Z,92.20
2019-02-05T01:31:07.482Z,92.41
2019-02-05T01:32:07.452Z,91.99
2019-02-05T01:33:07.536Z,91.99
2019-02-05T01:34:07.446Z,92.24
2019-02-05T01:35:07.419Z,91.99
2019-02-05T01:36:07.432Z,92.35
2019-02-05T01:37:07.413Z,92.30
2019-02-05T01:38:07.391Z,92.30
2019-02-05T01:39:07.466Z,92.45
2019-02-05T01:40:07.521Z,92.51
2019-02-05T01:41:07.351Z,92.20
2019-02-05T01:42:07.348Z,92.97
2019-02-05T01:43:07.340Z,92.51
2019-02-05T01:44:07.344Z,92.72
2019-02-05T01:45:07.419Z,92.66
2019-02-05T01:46:07.412Z,92.61
2019-02-05T01:47:07.329Z,92.55
2019-02-05T01:48:07.255Z,92.72
2019-02-05T01:49:07.266Z,92.82
2019-02-05T01:50:07.259Z,92.93
2019-02-05T01:51:07.276Z,92.93
2019-02-05T01:52:07.221Z,92.51
2019-02-05T01:53:07.219Z,92.97
2019-02-05T01:54:07.213Z,93.39
2019-02-05T01:55:07.214Z,93.49
2019-02-05T01:56:07.289Z,93.45
2019-02-05T01:57:07.187Z,93.24
2019-02-05T01:58:07.173Z,93.18
2019-02-05T01:59:07.167Z,93.18
2019-02-05T02:00:07.160Z,93.18
2019-02-05T02:01:07.211Z,92.72
2019-02-05T02:02:07.132Z,93.03
2019-02-05T02:03:07.156Z,92.93
2019-02-05T02:04:07.224Z,93.14
2019-02-05T02:05:07.104Z,93.45
2019-02-05T02:06:07.158Z,94.07
2019-02-05T02:07:07.188Z,93.66
2019-02-05T02:08:07.147Z,93.55
2019-02-05T02:09:07.033Z,93.76
2019-02-05T02:10:07.150Z,93.60
2019-02-05T02:11:07.101Z,93.70
2019-02-05T02:12:06.993Z,93.18
2019-02-05T02:13:06.983Z,93.60
2019-02-05T02:14:06.979Z,94.12
2019-02-05T02:15:06.990Z,94.22
2019-02-05T02:16:06.983Z,94.22
2019-02-05T02:17:07.021Z,94.74
2019-02-05T02:18:06.966Z,94.32
2019-02-05T02:19:06.930Z,94.43
2019-02-05T02:20:06.924Z,94.43
2019-02-05T02:21:06.907Z,94.74
2019-02-05T02:22:06.892Z,94.53
2019-02-05T02:23:07.027Z,94.53
2019-02-05T02:24:06.883Z,94.53
2019-02-05T02:25:06.881Z,94.59
2019-02-05T02:26:06.863Z,94.53
2019-02-05T02:27:06.851Z,94.64
2019-02-05T02:28:06.823Z,94.53
2019-02-05T02:29:06.987Z,94.64
2019-02-05T02:30:06.794Z,94.59
2019-02-05T02:31:06.800Z,94.64
2019-02-05T02:32:06.810Z,94.64
2019-02-05T02:33:06.826Z,94.43
2019-02-05T02:34:06.754Z,94.59
2019-02-05T02:35:06.748Z,94.43
2019-02-05T02:36:06.744Z,94.43
2019-02-05T02:37:06.836Z,94.64
2019-02-05T02:38:06.769Z,94.74
2019-02-05T02:39:06.723Z,94.84
2019-02-05T02:40:06.746Z,95.26
2019-02-05T02:41:06.705Z,95.26
2019-02-05T02:42:06.711Z,95.26
2019-02-05T02:43:06.738Z,95.26
2019-02-05T02:44:06.653Z,95.32
2019-02-05T02:45:06.639Z,95.11
2019-02-05T02:46:06.642Z,95.21
2019-02-05T02:47:06.697Z,95.26
2019-02-05T02:48:06.643Z,95.05
2019-02-05T02:49:07.280Z,94.95
2019-02-05T02:50:06.610Z,95.36
2019-02-05T02:51:06.594Z,95.26
2019-02-05T02:52:06.583Z,95.26
2019-02-05T02:53:06.617Z,95.36
2019-02-05T02:54:06.549Z,95.26
2019-02-05T02:55:06.513Z,94.70
2019-02-05T02:56:06.575Z,95.26
2019-02-05T02:57:06.520Z,95.26
2019-02-05T02:58:06.617Z,95.26
2019-02-05T02:59:06.519Z,95.15
2019-02-05T03:00:06.471Z,95.15
2019-02-05T03:01:06.503Z,95.26
2019-02-05T03:02:06.472Z,94.64
2019-02-05T03:03:06.458Z,95.05
2019-02-05T03:04:06.572Z,95.36
2019-02-05T03:05:06.429Z,95.15
2019-02-05T03:06:06.434Z,95.05
2019-02-05T03:07:06.394Z,95.36
2019-02-05T03:08:06.398Z,95.26
2019-02-05T03:09:06.386Z,95.26
2019-02-05T03:10:06.448Z,95.26
2019-02-05T03:11:06.376Z,95.21
2019-02-05T03:12:06.553Z,95.36
2019-02-05T03:13:06.319Z,94.84
2019-02-05T03:14:06.360Z,94.43
2019-02-05T03:15:06.416Z,94.28
2019-02-05T03:16:06.319Z,94.74
2019-02-05T03:17:06.300Z,94.43
2019-02-05T03:18:06.288Z,94.32
2019-02-05T03:19:06.267Z,94.64
2019-02-05T03:20:06.308Z,94.07
2019-02-05T03:21:06.325Z,94.49
2019-02-05T03:22:06.281Z,94.59
2019-02-05T03:23:06.371Z,94.59
2019-02-05T03:24:06.202Z,94.59
2019-02-05T03:25:06.179Z,94.53
2019-02-05T03:26:06.306Z,94.53
2019-02-05T03:27:17.424Z,94.64
2019-02-05T03:28:07.295Z,94.74
2019-02-05T03:29:06.193Z,94.43
2019-02-05T03:30:06.152Z,94.53
2019-02-05T03:31:06.185Z,94.80
2019-02-05T03:32:06.140Z,94.53
2019-02-05T03:33:06.377Z,94.53
2019-02-05T03:34:06.105Z,94.18
2019-02-05T03:35:06.155Z,94.43
2019-02-05T03:36:06.254Z,94.43
2019-02-05T03:37:06.058Z,94.28
2019-02-05T03:38:06.124Z,94.32
2019-02-05T03:39:06.058Z,94.43
2019-02-05T03:40:06.099Z,94.43
2019-02-05T03:41:06.023Z,94.32
2019-02-05T03:42:06.068Z,94.53
2019-02-05T03:43:06.075Z,94.64
2019-02-05T03:44:05.989Z,94.64
2019-02-05T03:45:06.085Z,94.53
2019-02-05T03:46:05.968Z,94.49
2019-02-05T03:47:05.957Z,94.43
2019-02-05T03:48:05.951Z,94.43
2019-02-05T03:49:05.952Z,94.53
2019-02-05T03:50:05.917Z,94.43
2019-02-05T03:51:06.032Z,94.70
2019-02-05T03:52:06.064Z,94.64
2019-02-05T03:53:05.906Z,94.59
2019-02-05T03:54:05.876Z,94.07
2019-02-05T03:55:06.790Z,94.12
2019-02-05T03:56:05.860Z,94.07
2019-02-05T03:57:05.889Z,94.07
2019-02-05T03:58:05.846Z,94.38
2019-02-05T03:59:05.884Z,94.28
2019-02-05T04:00:05.805Z,94.74
2019-02-05T04:01:05.804Z,94.53
2019-02-05T04:02:05.841Z,94.32
2019-02-05T04:03:05.926Z,94.80
2019-02-05T04:04:05.814Z,94.53
2019-02-05T04:05:05.765Z,94.53
2019-02-05T04:06:05.817Z,94.59
2019-02-05T04:07:05.763Z,94.74
2019-02-05T04:08:05.802Z,94.53
2019-02-05T04:09:05.820Z,94.28
2019-02-05T04:10:05.732Z,94.38
2019-02-05T04:11:05.711Z,94.32
2019-02-05T04:12:05.673Z,94.28
2019-02-05T04:13:05.674Z,94.49
2019-02-05T04:14:05.726Z,94.18
2019-02-05T04:15:05.652Z,94.18
2019-02-05T04:16:05.707Z,94.53
2019-02-05T04:17:05.636Z,94.32
2019-02-05T04:18:05.622Z,94.53
2019-02-05T04:19:05.646Z,94.43
2019-02-05T04:20:05.592Z,94.22
2019-02-05T04:21:05.602Z,94.64
2019-02-05T04:22:05.696Z,94.43
2019-02-05T04:23:05.554Z,94.53
2019-02-05T04:24:05.552Z,94.32
2019-02-05T04:25:05.577Z,94.64
2019-02-05T04:26:05.578Z,94.74
2019-02-05T04:27:05.583Z,94.64
2019-02-05T04:28:05.513Z,94.18
2019-02-05T04:29:05.507Z,94.59
2019-02-05T04:30:05.498Z,94.59
2019-02-05T04:31:05.535Z,94.18
2019-02-05T04:32:05.452Z,94.43
2019-02-05T04:33:05.446Z,94.28
2019-02-05T04:34:05.418Z,94.18
2019-02-05T04:35:05.424Z,94.32
2019-02-05T04:36:05.445Z,94.32
2019-02-05T04:37:05.393Z,94.43
2019-02-05T04:38:05.582Z,93.91
2019-02-05T04:39:05.423Z,94.43
2019-02-05T04:40:05.373Z,94.64
2019-02-05T04:41:05.382Z,94.64
2019-02-05T04:42:05.381Z,94.74
2019-02-05T04:43:05.331Z,94.59
2019-02-05T04:44:05.334Z,94.22
2019-02-05T04:45:05.377Z,94.12
2019-02-05T04:46:05.493Z,94.43
2019-02-05T04:47:06.296Z,94.70
2019-02-05T04:48:05.278Z,93.97
2019-02-05T04:49:05.384Z,94.22
2019-02-05T04:50:05.327Z,94.22
2019-02-05T04:51:05.264Z,94.18
2019-02-05T04:52:05.250Z,94.32
2019-02-05T04:53:05.269Z,94.07
2019-02-05T04:54:05.210Z,94.64
2019-02-05T04:55:05.204Z,94.59
2019-02-05T04:56:05.250Z,94.53
2019-02-05T04:57:05.196Z,94.64
2019-02-05T04:58:05.213Z,94.64
2019-02-05T04:59:05.177Z,94.59
2019-02-05T05:00:05.226Z,94.22
2019-02-05T05:01:05.162Z,94.22
2019-02-05T05:02:05.277Z,94.59
2019-02-05T05:03:05.108Z,94.49
2019-02-05T05:04:05.799Z,94.49
2019-02-05T05:05:05.119Z,94.43
2019-02-05T05:06:05.187Z,94.49
2019-02-05T05:07:05.797Z,94.28
2019-02-05T05:08:05.075Z,94.18
2019-02-05T05:09:05.074Z,94.18
2019-02-05T05:10:05.037Z,94.18
2019-02-05T05:11:05.040Z,94.18
2019-02-05T05:12:05.078Z,94.22
2019-02-05T05:13:05.020Z,94.32
2019-02-05T05:14:05.003Z,94.18
2019-02-05T05:15:04.990Z,94.22
2019-02-05T05:16:04.978Z,94.18
2019-02-05T05:17:04.969Z,94.18
2019-02-05T05:18:05.025Z,94.38
2019-02-05T05:19:05.009Z,94.38
2019-02-05T05:20:04.932Z,94.59
2019-02-05T05:21:05.042Z,94.38
2019-02-05T05:22:04.920Z,94.28
2019-02-05T05:23:04.999Z,93.97
2019-02-05T05:24:05.039Z,94.80
2019-02-05T05:25:05.803Z,94.59
2019-02-05T05:26:04.881Z,93.97
2019-02-05T05:27:04.921Z,94.59
2019-02-05T05:28:10.173Z,94.80
2019-02-05T05:29:05.900Z,94.13
2019-02-05T05:30:04.849Z,94.24
2019-02-05T05:31:04.824Z,94.59
2019-02-05T05:32:04.893Z,94.55
2019-02-05T05:33:04.850Z,94.59
2019-02-05T05:34:04.760Z,94.28
2019-02-05T05:35:04.832Z,94.07
2019-02-05T05:36:04.758Z,93.93
2019-02-05T05:38:36.205Z,93.30
2019-02-05T05:39:36.189Z,93.41
2019-02-05T05:40:36.206Z,93.35
2019-02-05T05:41:36.197Z,93.55
2019-02-05T05:42:36.143Z,93.72
2019-02-05T05:43:36.172Z,93.55
2019-02-05T05:44:36.085Z,93.93
2019-02-05T05:45:36.077Z,93.93
2019-02-05T05:46:36.147Z,93.51
2019-02-05T05:47:36.036Z,93.35
2019-02-05T05:48:36.047Z,93.03
2019-02-05T05:49:36.066Z,92.82
2019-02-05T05:50:43.302Z,92.93
2019-02-05T05:51:36.006Z,92.93
2019-02-05T05:52:36.011Z,93.03
2019-02-05T05:53:36.148Z,94.03
2019-02-05T05:54:35.985Z,93.24
2019-02-05T05:55:35.973Z,93.72
2019-02-05T05:56:36.033Z,93.72
2019-02-05T05:57:35.927Z,94.03
2019-02-05T05:58:35.978Z,94.13
2019-02-05T05:59:36.013Z,93.30
2019-02-05T06:00:35.909Z,93.62
2019-02-05T06:01:35.897Z,93.41
2019-02-05T06:02:35.952Z,92.78
2019-02-05T06:03:36.323Z,92.99
2019-02-05T06:04:35.908Z,92.93
2019-02-05T06:05:35.884Z,93.35
2019-02-05T06:06:35.835Z,93.45
2019-02-05T06:07:35.889Z,93.45
2019-02-05T06:08:35.908Z,93.41
2019-02-05T06:09:35.806Z,92.88
2019-02-05T06:10:35.806Z,92.57
2019-02-05T06:11:35.792Z,92.41
2019-02-05T06:12:35.778Z,92.51
2019-02-05T06:13:35.824Z,92.30
2019-02-05T06:14:35.768Z,91.99
2019-02-05T06:15:36.154Z,92.61
2019-02-05T06:16:35.749Z,92.93
2019-02-05T06:17:35.730Z,93.45
2019-02-05T06:18:35.724Z,93.55
2019-02-05T06:19:35.697Z,93.51
2019-02-05T06:20:35.923Z,93.55
2019-02-05T06:21:35.693Z,93.35
2019-02-05T06:22:35.704Z,93.35
2019-02-05T06:23:35.701Z,93.20
2019-02-05T06:24:35.635Z,92.93
2019-02-05T06:25:35.626Z,92.88
2019-02-05T06:26:35.758Z,92.82
2019-02-05T06:27:35.642Z,92.82
2019-02-05T06:28:35.589Z,92.61
2019-02-05T06:29:35.620Z,92.41
2019-02-05T06:30:35.591Z,92.61
2019-02-05T06:31:35.571Z,93.03
2019-02-05T06:32:35.600Z,93.35
2019-02-05T06:33:35.548Z,93.45
2019-02-05T06:34:35.542Z,92.93
2019-02-05T06:35:35.519Z,92.41
2019-02-05T06:36:35.566Z,92.30
2019-02-05T06:37:35.589Z,92.61
2019-02-05T06:38:35.492Z,92.72
2019-02-05T06:39:35.483Z,92.61
2019-02-05T06:40:35.462Z,92.97
2019-02-05T06:41:35.468Z,92.76
2019-02-05T06:42:36.210Z,93.55
2019-02-05T06:43:35.498Z,93.49
2019-02-05T06:44:35.449Z,93.14
2019-02-05T06:45:35.431Z,92.93
2019-02-05T06:46:35.416Z,93.03
2019-02-05T06:47:35.555Z,92.93
2019-02-05T06:48:35.386Z,93.07
2019-02-05T06:49:35.421Z,93.49
2019-02-05T06:50:35.427Z,93.03
2019-02-05T06:51:35.345Z,92.86
2019-02-05T06:52:35.347Z,93.03
2019-02-05T06:53:35.321Z,93.03
2019-02-05T06:54:35.380Z,92.97
2019-02-05T06:55:35.313Z,93.39
2019-02-05T06:56:35.334Z,93.80
2019-02-05T06:57:35.289Z,94.07
2019-02-05T06:58:45.737Z,93.49
2019-02-05T06:59:36.334Z,93.49
2019-02-05T07:00:35.244Z,93.80
2019-02-05T07:01:35.229Z,93.49
2019-02-05T07:02:35.227Z,93.18
2019-02-05T07:03:35.227Z,94.12
2019-02-05T07:04:35.188Z,94.22
2019-02-05T07:05:35.309Z,94.22
2019-02-05T07:06:35.291Z,94.12
2019-02-05T07:07:35.161Z,94.22
2019-02-05T07:08:35.166Z,94.22
2019-02-05T07:09:35.263Z,94.43
2019-02-05T07:10:35.247Z,94.43
2019-02-05T07:11:35.156Z,94.84
2019-02-05T07:12:35.227Z,94.74
2019-02-05T07:13:35.111Z,94.53
2019-02-05T07:14:35.088Z,94.53
2019-02-05T07:15:35.069Z,94.43
2019-02-05T07:16:35.152Z,94.43
2019-02-05T07:17:35.054Z,94.53
2019-02-05T07:18:35.103Z,94.32
2019-02-05T07:19:35.044Z,94.43
2019-02-05T07:20:35.023Z,94.32
2019-02-05T07:21:35.030Z,94.53
2019-02-05T07:22:35.059Z,94.43
2019-02-05T07:23:35.200Z,94.43
2019-02-05T07:24:34.977Z,94.12
2019-02-05T07:25:34.984Z,94.38
2019-02-05T07:26:34.961Z,94.38
2019-02-05T07:27:34.947Z,94.53
2019-02-05T07:28:34.965Z,94.43
2019-02-05T07:29:34.962Z,94.38
2019-02-05T07:30:34.916Z,94.59
2019-02-05T07:31:34.898Z,94.64
2019-02-05T07:32:34.896Z,94.43
2019-02-05T07:33:34.918Z,94.53
2019-02-05T07:34:34.900Z,94.84
2019-02-05T07:35:34.897Z,94.64
2019-02-05T07:36:34.942Z,94.12
2019-02-05T07:37:34.835Z,94.49
2019-02-05T07:38:34.833Z,93.97
2019-02-05T07:39:34.836Z,94.59
2019-02-05T07:40:34.864Z,94.43
2019-02-05T07:41:34.864Z,94.38
2019-02-05T07:42:34.780Z,94.28
2019-02-05T07:43:34.782Z,94.32
2019-02-05T07:44:34.767Z,94.70
2019-02-05T07:45:34.740Z,94.59
2019-02-05T07:46:34.732Z,94.28
2019-02-05T07:47:34.754Z,94.59
2019-02-05T07:48:34.715Z,94.59
2019-02-05T07:49:34.710Z,94.18
2019-02-05T07:50:34.675Z,94.18
2019-02-05T07:51:34.741Z,94.07
2019-02-05T07:52:34.677Z,93.66
2019-02-05T07:53:34.650Z,93.45
2019-02-05T07:54:34.636Z,93.24
2019-02-05T07:55:35.222Z,93.20
2019-02-05T07:56:34.739Z,93.41
2019-02-05T07:57:34.610Z,93.51
2019-02-05T07:58:34.650Z,93.66
2019-02-05T07:59:34.594Z,93.51
2019-02-05T08:00:34.605Z,93.66
2019-02-05T08:01:34.596Z,93.66
2019-02-05T08:02:34.718Z,93.45
2019-02-05T08:03:34.540Z,93.93
2019-02-05T08:04:34.546Z,93.93
2019-02-05T08:05:34.529Z,93.41
2019-02-05T08:06:34.556Z,92.88
2019-02-05T08:07:34.497Z,92.93
2019-02-05T08:08:34.530Z,92.88
2019-02-05T08:09:34.542Z,92.88
2019-02-05T08:10:34.466Z,93.24
2019-02-05T08:11:34.498Z,93.30
2019-02-05T08:12:34.451Z,94.07
2019-02-05T08:13:34.438Z,93.82
2019-02-05T08:14:34.463Z,93.97
2019-02-05T08:15:34.489Z,93.97
2019-02-05T08:16:34.394Z,93.66
2019-02-05T08:17:34.400Z,93.24
2019-02-05T08:18:34.504Z,93.62
2019-02-05T08:19:34.536Z,93.55
2019-02-05T08:20:34.367Z,93.51
2019-02-05T08:21:34.384Z,93.62
2019-02-05T08:22:34.484Z,93.72
2019-02-05T08:23:34.317Z,93.72
2019-02-05T08:24:34.387Z,93.24
2019-02-05T08:25:34.329Z,94.18
2019-02-05T08:26:34.353Z,93.97
2019-02-05T08:27:37.058Z,94.07
2019-02-05T08:28:41.025Z,94.18
2019-02-05T08:29:35.348Z,94.38
2019-02-05T08:30:34.229Z,94.55
2019-02-05T08:31:34.236Z,94.34
2019-02-05T08:32:34.258Z,94.28
2019-02-05T08:33:34.206Z,94.13
2019-02-05T08:34:34.235Z,94.13
2019-02-05T08:35:34.406Z,94.34
2019-02-05T08:36:34.179Z,94.34
2019-02-05T08:37:34.246Z,93.93
2019-02-05T08:38:34.413Z,94.24
2019-02-05T08:39:34.186Z,94.13
2019-02-05T08:40:34.143Z,94.13
2019-02-05T08:41:34.289Z,94.13
2019-02-05T08:42:34.163Z,93.93
2019-02-05T08:43:34.730Z,93.93
2019-02-05T08:44:34.094Z,93.41
2019-02-05T08:45:34.120Z,93.30
2019-02-05T08:46:34.127Z,93.41
2019-02-05T08:47:34.164Z,93.62
2019-02-05T08:48:34.091Z,93.41
2019-02-05T08:49:34.093Z,93.10
2019-02-05T08:50:34.037Z,93.41
2019-02-05T08:51:34.020Z,93.72
2019-02-05T08:52:34.069Z,93.93
2019-02-05T08:53:33.982Z,93.99
2019-02-05T08:54:34.043Z,93.47
2019-02-05T08:55:33.968Z,93.26
2019-02-05T08:56:33.968Z,93.26
2019-02-05T08:57:34.063Z,92.74
2019-02-05T08:58:33.975Z,93.05
2019-02-05T08:59:34.019Z,93.05
2019-02-05T09:00:34.030Z,92.74
2019-02-05T09:01:33.906Z,93.37
2019-02-05T09:02:34.148Z,92.53
2019-02-05T09:03:33.877Z,91.91
2019-02-05T09:04:33.876Z,92.53
2019-02-05T09:05:34.092Z,92.11
2019-02-05T09:06:35.527Z,92.43
2019-02-05T09:07:33.906Z,92.43
2019-02-05T09:08:33.839Z,92.22
2019-02-05T09:09:33.886Z,92.84
2019-02-05T09:10:33.814Z,92.49
2019-02-05T09:11:33.769Z,92.80
2019-02-05T09:12:33.805Z,92.49
2019-02-05T09:13:33.765Z,91.86
2019-02-05T09:14:33.825Z,91.86
2019-02-05T09:15:33.864Z,91.76
2019-02-05T09:16:33.742Z,92.18
2019-02-05T09:17:33.719Z,92.38
2019-02-05T09:18:33.721Z,92.18
2019-02-05T09:19:33.711Z,92.18
2019-02-05T09:20:33.699Z,92.28
2019-02-05T09:21:33.777Z,92.07
2019-02-05T09:22:33.665Z,91.41
2019-02-05T09:23:33.665Z,92.49
2019-02-05T09:24:33.649Z,92.49
2019-02-05T09:25:33.687Z,91.55
2019-02-05T09:26:33.631Z,91.52
2019-02-05T09:27:33.624Z,92.35
2019-02-05T09:28:33.614Z,91.62
2019-02-05T09:29:33.799Z,91.83
2019-02-05T09:30:33.588Z,92.03
2019-02-05T09:31:33.600Z,91.52
2019-02-05T09:32:35.115Z,91.10
2019-02-05T09:33:33.603Z,91.52
2019-02-05T09:34:33.555Z,91.72
2019-02-05T09:35:33.534Z,91.72
2019-02-05T09:36:33.576Z,91.00
2019-02-05T09:37:33.635Z,90.89
2019-02-05T09:38:33.489Z,91.52
2019-02-05T09:39:33.604Z,91.31
2019-02-05T09:40:33.483Z,91.62
2019-02-05T09:41:33.539Z,91.10
2019-02-05T09:42:33.455Z,91.06
2019-02-05T09:43:33.505Z,91.58
2019-02-05T09:44:33.485Z,91.52
2019-02-05T09:45:33.414Z,91.37
2019-02-05T09:46:33.468Z,90.48
2019-02-05T09:47:33.397Z,90.58
2019-02-05T09:48:33.473Z,90.58
2019-02-05T09:49:33.409Z,91.00
2019-02-05T09:50:43.754Z,90.64
2019-02-05T09:51:34.358Z,90.64
2019-02-05T09:52:33.344Z,90.17
2019-02-05T09:53:33.425Z,91.31
2019-02-05T09:54:33.381Z,91.47
2019-02-05T09:55:36.007Z,91.89
2019-02-05T09:56:33.295Z,91.89
2019-02-05T09:57:33.288Z,91.06
2019-02-05T09:58:34.238Z,91.37
2019-02-05T09:59:44.852Z,91.37
2019-02-05T10:00:34.357Z,90.23
2019-02-05T10:01:33.233Z,90.12
2019-02-05T10:02:33.306Z,90.12
2019-02-05T10:03:33.214Z,90.23
2019-02-05T10:04:33.255Z,90.27
2019-02-05T10:05:33.313Z,90.33
2019-02-05T10:06:33.165Z,90.37
2019-02-05T10:07:33.174Z,90.44
2019-02-05T10:08:33.235Z,90.54
2019-02-05T10:09:34.248Z,90.54
2019-02-05T10:10:33.133Z,90.95
2019-02-05T10:11:33.129Z,90.85
2019-02-05T10:12:33.106Z,90.75
2019-02-05T10:13:33.223Z,90.23
2019-02-05T10:14:33.108Z,90.33
2019-02-05T10:15:33.196Z,90.23
2019-02-05T10:16:33.132Z,90.23
2019-02-05T10:17:33.115Z,90.33
2019-02-05T10:18:33.146Z,90.54
2019-02-05T10:19:33.054Z,89.61
2019-02-05T10:20:33.106Z,90.54
2019-02-05T10:21:33.076Z,90.33
2019-02-05T10:22:33.038Z,90.33
2019-02-05T10:23:33.023Z,90.23
2019-02-05T10:24:33.099Z,89.81
2019-02-05T10:25:33.056Z,90.44
2019-02-05T10:26:32.973Z,90.02
2019-02-05T10:27:33.065Z,90.23
2019-02-05T10:28:33.579Z,90.23
2019-02-05T10:29:32.945Z,90.33
2019-02-05T10:30:32.924Z,90.33
2019-02-05T10:31:33.005Z,90.54
2019-02-05T10:32:32.969Z,90.33
2019-02-05T10:33:32.922Z,90.33
2019-02-05T10:34:34.416Z,91.27
2019-02-05T10:35:32.880Z,91.02
2019-02-05T10:36:32.866Z,91.68
2019-02-05T10:37:32.882Z,90.91
2019-02-05T10:38:32.908Z,91.22
2019-02-05T10:39:32.898Z,90.39
2019-02-05T10:40:32.804Z,90.70
2019-02-05T10:41:32.781Z,90.50
2019-02-05T10:43:33.894Z,90.19
2019-02-05T10:44:32.780Z,89.98
2019-02-05T10:45:32.744Z,90.08
2019-02-05T10:46:32.832Z,90.19
2019-02-05T10:47:33.245Z,90.19
2019-02-05T10:48:32.793Z,90.19
2019-02-05T10:49:32.864Z,90.19
2019-02-05T10:50:32.728Z,90.19
2019-02-05T10:51:32.776Z,90.19
2019-02-05T10:52:32.691Z,90.08
2019-02-05T10:53:32.672Z,89.94
2019-02-05T10:54:35.338Z,89.83
2019-02-05T10:55:32.723Z,89.94
2019-02-05T10:56:32.757Z,89.52
2019-02-05T10:57:32.605Z,89.94
2019-02-05T10:58:32.633Z,89.62
2019-02-05T10:59:32.594Z,89.73
2019-02-05T11:00:32.567Z,89.94
2019-02-05T11:01:32.597Z,89.83
2019-02-05T11:02:32.548Z,89.62
2019-02-05T11:03:32.537Z,89.21
2019-02-05T11:04:32.533Z,89.31
2019-02-05T11:05:32.538Z,88.18
2019-02-05T11:06:32.508Z,89.25
2019-02-05T11:07:32.672Z,88.84
2019-02-05T11:08:32.537Z,89.25
2019-02-05T11:09:32.477Z,89.77
2019-02-05T11:10:32.461Z,89.62
2019-02-05T11:11:32.446Z,89.73
2019-02-05T11:12:32.461Z,89.87
2019-02-05T11:13:32.507Z,89.77
2019-02-05T11:14:32.578Z,89.62
2019-02-05T11:15:32.435Z,89.04
2019-02-05T11:16:32.397Z,90.14
2019-02-05T11:17:32.415Z,90.14
2019-02-05T11:18:32.400Z,89.83
2019-02-05T11:19:32.493Z,90.04
2019-02-05T11:20:32.438Z,89.83
2019-02-05T11:21:32.357Z,90.10
2019-02-05T11:22:32.453Z,90.41
2019-02-05T11:23:33.248Z,89.69
2019-02-05T11:24:32.306Z,89.48
2019-02-05T11:25:32.318Z,89.69
2019-02-05T11:26:32.286Z,88.65
2019-02-05T11:27:32.274Z,88.28
2019-02-05T11:28:32.280Z,88.76
2019-02-05T11:29:32.293Z,88.96
2019-02-05T11:30:32.244Z,89.17
2019-02-05T11:31:32.229Z,89.28
2019-02-05T11:32:32.222Z,88.96
2019-02-05T11:33:32.218Z,88.76
2019-02-05T11:34:32.213Z,89.17
2019-02-05T11:35:32.206Z,88.96
2019-02-05T11:36:32.167Z,89.03
2019-02-05T11:37:32.164Z,89.03
2019-02-05T11:38:32.151Z,88.61
2019-02-05T11:39:32.178Z,87.99
2019-02-05T11:40:32.149Z,87.82
2019-02-05T11:41:32.222Z,87.41
2019-02-05T11:42:32.101Z,88.13
2019-02-05T11:43:32.103Z,88.34
2019-02-05T11:44:32.101Z,88.34
2019-02-05T11:45:32.127Z,87.93
2019-02-05T11:46:32.080Z,87.88
2019-02-05T11:47:32.052Z,88.51
2019-02-05T11:48:32.038Z,88.82
2019-02-05T11:49:32.028Z,88.82
2019-02-05T11:50:32.013Z,87.88
2019-02-05T11:51:39.454Z,88.09
2019-02-05T11:52:31.989Z,87.99
2019-02-05T11:53:31.982Z,87.78
2019-02-05T11:54:31.967Z,87.47
2019-02-05T11:55:31.960Z,87.16
2019-02-05T11:56:31.943Z,86.65
2019-02-05T11:57:31.952Z,86.85
2019-02-05T11:58:31.924Z,87.16
2019-02-05T11:59:31.911Z,87.78
2019-02-05T12:00:33.055Z,87.68
2019-02-05T12:01:39.139Z,87.78
2019-02-05T12:02:33.075Z,88.40
2019-02-05T12:03:32.015Z,88.09
2019-02-05T12:04:31.867Z,87.68
2019-02-05T12:05:31.849Z,87.99
2019-02-05T12:06:31.849Z,88.34
2019-02-05T12:07:31.856Z,87.06
2019-02-05T12:08:31.814Z,86.99
2019-02-05T12:09:31.802Z,87.20
2019-02-05T12:10:31.818Z,87.41
2019-02-05T12:11:31.780Z,87.82
2019-02-05T12:12:31.801Z,87.72
2019-02-05T12:13:31.803Z,88.03
2019-02-05T12:14:31.801Z,87.78
2019-02-05T12:15:31.728Z,88.30
2019-02-05T12:16:31.723Z,88.40
2019-02-05T12:17:31.753Z,88.20
2019-02-05T12:18:31.698Z,88.09
2019-02-05T12:19:31.694Z,87.62
2019-02-05T12:20:31.670Z,87.93
2019-02-05T12:21:31.675Z,88.55
2019-02-05T12:22:31.659Z,88.34
2019-02-05T12:23:31.662Z,87.72
2019-02-05T12:24:31.629Z,88.07
2019-02-05T12:25:31.628Z,87.72
2019-02-05T12:26:31.613Z,88.45
2019-02-05T12:27:31.605Z,88.03
2019-02-05T12:28:31.630Z,88.90
2019-02-05T12:29:31.574Z,88.79
2019-02-05T12:30:31.564Z,88.79
2019-02-05T12:31:31.560Z,89.07
2019-02-05T12:32:31.538Z,88.55
2019-02-05T12:33:31.691Z,88.65
2019-02-05T12:34:31.518Z,88.76
2019-02-05T12:35:31.506Z,88.86
2019-02-05T12:36:31.619Z,89.07
2019-02-05T12:37:31.538Z,88.76
2019-02-05T12:38:31.487Z,88.76
2019-02-05T12:39:31.484Z,88.96
2019-02-05T12:40:31.457Z,88.96
2019-02-05T12:41:31.486Z,88.82
2019-02-05T12:42:31.427Z,88.76
2019-02-05T12:43:31.441Z,88.92
2019-02-05T12:44:31.406Z,87.62
2019-02-05T12:45:31.404Z,88.24
2019-02-05T12:46:31.390Z,88.34
2019-02-05T12:47:31.443Z,88.13
2019-02-05T12:48:31.412Z,88.45
2019-02-05T12:49:31.359Z,88.34
2019-02-05T12:50:31.362Z,88.40
2019-02-05T12:51:31.329Z,89.17
2019-02-05T12:52:31.326Z,88.71
2019-02-05T12:53:31.342Z,88.65
2019-02-05T12:54:31.295Z,88.51